createdAt,value
2019-06-20T00:00:33.655Z,8.73
2019-06-20T00:02:59.875Z,8.69
2019-06-20T00:05:26.229Z,8.67
2019-06-20T00:07:52.477Z,8.62
2019-06-20T00:10:18.736Z,8.56
2019-06-20T00:12:59.443Z,8.45
2019-06-20T00:15:13.420Z,8.40
2019-06-20T00:17:39.652Z,8.32
2019-06-20T00:20:05.904Z,8.19
2019-06-20T00:22:32.034Z,8.11
2019-06-20T00:24:58.163Z,8.10
2019-06-20T00:27:24.285Z,8.10
2019-06-20T00:29:50.515Z,8.10
2019-06-20T00:32:16.750Z,8.10
2019-06-20T00:34:42.880Z,8.03
2019-06-20T00:37:09.036Z,7.92
2019-06-20T00:39:35.414Z,7.86
2019-06-20T00:42:01.648Z,7.82
2019-06-20T00:44:28.963Z,7.82
2019-06-20T00:46:57.048Z,7.83
2019-06-20T00:49:24.641Z,7.80
2019-06-20T00:51:51.895Z,7.74
2019-06-20T00:54:18.111Z,7.66
2019-06-20T00:56:47.566Z,7.62
2019-06-20T00:59:18.509Z,7.61
2019-06-20T01:01:44.745Z,7.62
2019-06-20T01:04:11.001Z,7.61
2019-06-20T01:06:37.270Z,7.60
2019-06-20T01:09:06.456Z,7.62
2019-06-20T01:11:33.942Z,7.62
2019-06-20T01:14:00.097Z,7.57
2019-06-20T01:16:26.219Z,7.49
2019-06-20T01:18:52.442Z,7.44
2019-06-20T01:21:19.639Z,7.41
2019-06-20T01:23:45.852Z,7.37
2019-06-20T01:26:12.002Z,7.31
2019-06-20T01:28:39.704Z,7.25
2019-06-20T01:31:06.268Z,7.27
2019-06-20T01:33:35.521Z,7.32
2019-06-20T01:36:03.553Z,7.32
2019-06-20T01:38:29.781Z,7.35
2019-06-20T01:40:56.137Z,7.41
2019-06-20T01:43:22.418Z,7.51
2019-06-20T01:45:48.736Z,7.65
2019-06-20T01:48:16.233Z,7.76
2019-06-20T01:50:42.449Z,7.90
2019-06-20T01:53:10.000Z,8.07
2019-06-20T01:55:36.227Z,8.21
2019-06-20T01:58:03.012Z,8.35
2019-06-20T02:00:41.875Z,8.44
2019-06-20T02:03:08.253Z,8.55
2019-06-20T02:05:34.827Z,8.64
2019-06-20T02:08:01.082Z,8.72
2019-06-20T02:10:27.356Z,8.85
2019-06-20T02:12:54.782Z,8.97
2019-06-20T02:15:24.900Z,9.11
2019-06-20T02:17:51.035Z,9.19
2019-06-20T02:20:34.982Z,9.26
2019-06-20T02:23:01.179Z,9.28
2019-06-20T02:25:27.396Z,9.43
2019-06-20T02:27:53.559Z,9.56
2019-06-20T02:30:19.997Z,9.64
2019-06-20T02:32:46.246Z,9.71
2019-06-20T02:35:12.357Z,9.76
2019-06-20T02:37:38.497Z,9.83
2019-06-20T02:40:05.425Z,9.91
2019-06-20T02:42:31.998Z,9.99
2019-06-20T02:44:58.127Z,10.05
2019-06-20T02:47:24.372Z,10.14
2019-06-20T02:49:51.822Z,10.21
2019-06-20T02:52:19.679Z,10.29
2019-06-20T02:54:46.548Z,10.35
2019-06-20T02:57:12.842Z,10.41
2019-06-20T02:59:39.112Z,10.41
2019-06-20T03:02:07.879Z,10.44
2019-06-20T03:04:34.097Z,10.45
2019-06-20T03:07:00.679Z,10.47
2019-06-20T03:09:29.164Z,10.58
2019-06-20T03:11:58.533Z,10.66
2019-06-20T03:14:24.677Z,10.73
2019-06-20T03:16:50.793Z,10.78
2019-06-20T03:19:17.009Z,10.83
2019-06-20T03:21:43.228Z,10.86
2019-06-20T03:24:09.357Z,10.88
2019-06-20T03:26:35.513Z,10.94
2019-06-20T03:29:01.643Z,11.00
2019-06-20T03:31:28.272Z,11.03
2019-06-20T03:33:54.802Z,11.04
2019-06-20T03:36:21.027Z,11.08
2019-06-20T03:38:47.288Z,11.17
2019-06-20T03:41:15.249Z,11.28
2019-06-20T03:43:44.368Z,11.36
2019-06-20T03:46:10.990Z,11.44
2019-06-20T03:48:37.503Z,11.50
2019-06-20T03:51:05.003Z,11.51
2019-06-20T03:53:32.966Z,11.53
2019-06-20T03:55:59.083Z,11.59
2019-06-20T03:58:26.534Z,11.65
2019-06-20T04:00:56.589Z,11.70
2019-06-20T04:03:24.146Z,11.72
2019-06-20T04:05:53.444Z,11.75
2019-06-20T04:08:19.671Z,11.82
2019-06-20T04:10:45.906Z,11.88
2019-06-20T04:13:12.034Z,11.93
2019-06-20T04:15:38.171Z,11.96
2019-06-20T04:18:04.284Z,11.98
2019-06-20T04:20:30.516Z,12.05
2019-06-20T04:22:56.634Z,12.17
2019-06-20T04:25:22.943Z,12.25
2019-06-20T04:27:49.191Z,12.35
2019-06-20T04:30:16.227Z,12.44
2019-06-20T04:32:42.371Z,12.48
2019-06-20T04:35:08.593Z,12.57
2019-06-20T04:37:34.737Z,12.62
2019-06-20T04:40:00.967Z,12.64
2019-06-20T04:42:27.108Z,12.63
2019-06-20T04:44:55.502Z,12.55
2019-06-20T04:47:21.739Z,12.57
2019-06-20T04:49:47.967Z,12.57
2019-06-20T04:52:14.192Z,12.61
2019-06-20T04:54:40.331Z,12.71
2019-06-20T04:57:06.448Z,12.75
2019-06-20T04:59:34.533Z,12.79
2019-06-20T05:02:00.783Z,12.82
2019-06-20T05:04:26.882Z,12.87
2019-06-20T05:07:02.427Z,12.84
2019-06-20T05:09:28.645Z,12.84
2019-06-20T05:11:54.877Z,12.84
2019-06-20T05:14:21.115Z,12.85
2019-06-20T05:16:47.247Z,12.88
2019-06-20T05:19:13.472Z,12.92
2019-06-20T05:21:39.696Z,12.93
2019-06-20T05:24:05.825Z,13.01
2019-06-20T05:26:31.956Z,13.03
2019-06-20T05:28:58.195Z,12.99
2019-06-20T05:31:24.477Z,13.02
2019-06-20T05:33:50.643Z,12.98
2019-06-20T05:36:16.888Z,13.00
2019-06-20T05:38:43.131Z,13.03
2019-06-20T05:41:09.357Z,13.04
2019-06-20T05:43:35.592Z,13.10
2019-06-20T05:46:09.678Z,13.10
2019-06-20T05:48:29.972Z,13.15
2019-06-20T05:50:56.208Z,13.17
2019-06-20T05:53:22.442Z,13.13
2019-06-20T05:55:48.658Z,13.12
2019-06-20T05:58:15.495Z,13.16
2019-06-20T06:00:41.786Z,13.18
2019-06-20T06:03:07.984Z,13.22
2019-06-20T06:05:34.208Z,13.24
2019-06-20T06:08:00.454Z,13.31
2019-06-20T06:10:26.681Z,13.37
2019-06-20T06:12:52.902Z,13.44
2019-06-20T06:15:19.212Z,13.44
2019-06-20T06:17:45.441Z,13.40
2019-06-20T06:20:12.485Z,13.43
2019-06-20T06:22:39.258Z,13.41
2019-06-20T06:25:06.180Z,13.60
2019-06-20T06:27:32.403Z,13.72
2019-06-20T06:29:58.626Z,13.78
2019-06-20T06:32:39.230Z,13.90
2019-06-20T06:34:52.834Z,14.02
2019-06-20T06:37:18.972Z,14.14
2019-06-20T06:39:45.188Z,14.36
2019-06-20T06:42:11.425Z,14.47
2019-06-20T06:44:37.536Z,14.58
2019-06-20T06:47:03.758Z,14.76
2019-06-20T06:49:29.905Z,14.97
2019-06-20T06:51:56.145Z,15.13
2019-06-20T06:54:22.404Z,15.17
2019-06-20T06:56:48.775Z,15.15
2019-06-20T06:59:14.905Z,15.26
2019-06-20T07:01:41.052Z,15.26
2019-06-20T07:04:07.403Z,15.26
2019-06-20T07:06:33.668Z,15.25
2019-06-20T07:08:59.942Z,15.37
2019-06-20T07:11:26.098Z,15.48
2019-06-20T07:13:52.212Z,15.56
2019-06-20T07:16:18.367Z,15.49
2019-06-20T07:18:44.467Z,15.51
2019-06-20T07:21:10.718Z,15.61
2019-06-20T07:23:36.941Z,15.68
2019-06-20T07:26:03.266Z,15.81
2019-06-20T07:28:29.563Z,15.83
2019-06-20T07:30:56.847Z,15.95
2019-06-20T07:33:26.960Z,16.04
2019-06-20T07:35:59.169Z,16.04
2019-06-20T07:38:27.116Z,16.10
2019-06-20T07:40:53.344Z,16.20
2019-06-20T07:43:23.583Z,16.27
2019-06-20T07:46:01.957Z,16.35
2019-06-20T07:48:19.612Z,16.47
2019-06-20T07:50:48.252Z,16.35
2019-06-20T07:53:14.420Z,16.35
2019-06-20T07:55:43.006Z,16.37
2019-06-20T07:58:11.667Z,16.35
2019-06-20T08:00:37.798Z,16.36
2019-06-20T08:03:03.952Z,16.44
2019-06-20T08:05:30.081Z,16.49
2019-06-20T08:07:56.236Z,16.44
2019-06-20T08:10:27.425Z,16.59
2019-06-20T08:12:54.932Z,16.67
2019-06-20T08:15:23.939Z,16.58
2019-06-20T08:17:51.875Z,16.69
2019-06-20T08:20:19.023Z,16.76
2019-06-20T08:22:47.418Z,16.91
2019-06-20T08:25:15.918Z,17.04
2019-06-20T08:27:51.655Z,17.00
2019-06-20T08:30:22.772Z,17.07
2019-06-20T08:32:49.047Z,17.20
2019-06-20T08:35:18.589Z,17.23
2019-06-20T08:37:46.325Z,17.30
2019-06-20T08:40:15.512Z,17.36
2019-06-20T08:42:44.895Z,17.34
2019-06-20T08:45:14.624Z,17.43
2019-06-20T08:47:41.276Z,17.42
2019-06-20T08:50:09.019Z,17.33
2019-06-20T08:52:35.972Z,17.28
2019-06-20T08:55:08.695Z,17.35
2019-06-20T08:57:34.817Z,17.43
2019-06-20T09:00:00.970Z,17.58
2019-06-20T09:02:27.097Z,17.72
2019-06-20T09:04:55.220Z,17.86
2019-06-20T09:07:23.129Z,17.88
2019-06-20T09:09:50.421Z,17.99
2019-06-20T09:12:16.656Z,17.97
2019-06-20T09:14:42.934Z,18.06
2019-06-20T09:17:09.245Z,18.06
2019-06-20T09:19:35.341Z,18.05
2019-06-20T09:22:04.668Z,17.99
2019-06-20T09:24:31.330Z,17.94
2019-06-20T09:26:57.484Z,17.93
2019-06-20T09:29:38.341Z,17.93
2019-06-20T09:31:55.642Z,17.90
2019-06-20T09:34:23.451Z,17.81
2019-06-20T09:36:51.938Z,17.75
2019-06-20T09:39:18.235Z,17.63
2019-06-20T09:41:44.372Z,17.55
2019-06-20T09:44:10.521Z,17.42
2019-06-20T09:46:36.795Z,17.30
2019-06-20T09:49:03.292Z,17.20
2019-06-20T09:51:29.554Z,17.11
2019-06-20T09:53:56.355Z,17.02
2019-06-20T09:56:22.533Z,16.88
2019-06-20T09:58:49.596Z,16.58
2019-06-20T10:01:16.203Z,16.52
2019-06-20T10:03:42.441Z,16.53
2019-06-20T10:06:13.749Z,16.48
2019-06-20T10:08:36.970Z,16.52
2019-06-20T10:11:03.195Z,16.55
2019-06-20T10:13:32.549Z,16.52
2019-06-20T10:15:57.397Z,16.36
2019-06-20T10:18:23.534Z,16.36
2019-06-20T10:20:51.471Z,16.14
2019-06-20T10:23:17.624Z,16.14
2019-06-20T10:25:46.101Z,16.01
2019-06-20T10:28:11.972Z,15.93
2019-06-20T10:30:38.234Z,15.82
2019-06-20T10:33:04.341Z,15.82
2019-06-20T10:35:30.590Z,15.93
2019-06-20T10:37:57.300Z,16.00
2019-06-20T10:40:24.105Z,16.15
2019-06-20T10:42:50.375Z,16.15
2019-06-20T10:45:18.997Z,16.17
2019-06-20T10:47:47.278Z,16.10
2019-06-20T10:50:17.498Z,16.10
2019-06-20T10:52:43.725Z,16.04
2019-06-20T10:55:10.498Z,15.93
2019-06-20T10:57:36.779Z,15.84
2019-06-20T11:00:09.302Z,15.81
2019-06-20T11:02:35.537Z,15.76
2019-06-20T11:05:04.074Z,15.72
2019-06-20T11:07:30.207Z,15.72
2019-06-20T11:09:57.751Z,15.58
2019-06-20T11:12:24.987Z,15.59
2019-06-20T11:14:52.783Z,15.61
2019-06-20T11:17:20.824Z,15.59
2019-06-20T11:19:48.044Z,15.51
2019-06-20T11:22:15.407Z,15.48
2019-06-20T11:24:43.044Z,15.50
2019-06-20T11:27:09.674Z,15.48
2019-06-20T11:29:37.801Z,15.39
2019-06-20T11:32:03.896Z,15.32
2019-06-20T11:34:31.706Z,15.26
2019-06-20T11:36:57.923Z,15.31
2019-06-20T11:39:24.055Z,15.30
2019-06-20T11:41:51.777Z,15.24
2019-06-20T11:44:19.726Z,15.41
2019-06-20T11:46:47.101Z,15.45
2019-06-20T11:49:13.617Z,15.61
2019-06-20T11:51:39.907Z,15.78
2019-06-20T11:54:06.150Z,16.11
2019-06-20T11:56:32.688Z,16.40
2019-06-20T11:59:00.766Z,16.53
2019-06-20T12:01:32.915Z,16.64
2019-06-20T12:03:57.035Z,16.62
2019-06-20T12:06:24.287Z,16.51
2019-06-20T12:08:52.810Z,16.61
2019-06-20T12:11:20.787Z,16.55
2019-06-20T12:13:49.598Z,16.45
2019-06-20T12:16:16.218Z,16.46
2019-06-20T12:18:43.147Z,16.53
2019-06-20T12:21:12.457Z,16.66
2019-06-20T12:23:40.700Z,16.82
2019-06-20T12:26:09.260Z,16.82
2019-06-20T12:28:35.413Z,16.90
2019-06-20T12:31:01.695Z,16.98
2019-06-20T12:33:27.929Z,17.14
2019-06-20T12:35:54.279Z,17.48
2019-06-20T12:38:20.510Z,17.59
2019-06-20T12:40:46.740Z,17.75
2019-06-20T12:43:12.890Z,17.85
2019-06-20T12:45:40.025Z,17.84
2019-06-20T12:48:07.273Z,17.94
2019-06-20T12:50:35.324Z,18.20
2019-06-20T12:53:01.598Z,18.24
2019-06-20T12:55:27.901Z,18.54
2019-06-20T12:57:54.206Z,18.79
2019-06-20T13:00:21.482Z,18.77
2019-06-20T13:02:47.834Z,19.10
2019-06-20T13:05:21.158Z,19.62
2019-06-20T13:07:50.439Z,20.15
2019-06-20T13:10:17.852Z,20.45
2019-06-20T13:12:46.353Z,20.57
2019-06-20T13:15:14.482Z,20.80
2019-06-20T13:17:47.013Z,20.67
2019-06-20T13:20:14.160Z,20.73
2019-06-20T13:22:44.825Z,21.08
2019-06-20T13:25:14.185Z,21.23
2019-06-20T13:27:41.054Z,21.48
2019-06-20T13:30:09.618Z,21.68
2019-06-20T13:32:42.047Z,21.50
2019-06-20T13:35:11.449Z,21.60
2019-06-20T13:37:38.220Z,21.83
2019-06-20T13:40:13.562Z,21.74
2019-06-20T13:42:41.953Z,21.71
2019-06-20T13:45:27.505Z,21.67
2019-06-20T13:47:54.248Z,21.82
2019-06-20T13:50:23.043Z,21.84
2019-06-20T13:52:51.158Z,21.86
2019-06-20T13:55:18.023Z,21.95
2019-06-20T13:57:45.235Z,22.01
2019-06-20T14:00:15.007Z,22.23
2019-06-20T14:02:43.298Z,22.51
2019-06-20T14:05:10.448Z,21.96
2019-06-20T14:07:43.585Z,21.95
2019-06-20T14:10:08.786Z,21.95
2019-06-20T14:12:36.854Z,22.21
2019-06-20T14:15:05.184Z,22.35
2019-06-20T14:17:31.852Z,22.39
2019-06-20T14:20:00.374Z,22.63
2019-06-20T14:22:32.826Z,22.34
2019-06-20T14:24:59.390Z,22.22
2019-06-20T14:27:28.900Z,22.54
2019-06-20T14:29:58.487Z,22.66
2019-06-20T14:32:24.783Z,22.55
2019-06-20T14:34:52.649Z,22.44
2019-06-20T14:37:20.164Z,22.29
2019-06-20T14:39:46.868Z,22.23
2019-06-20T14:42:15.554Z,22.24
2019-06-20T14:44:44.098Z,22.15
2019-06-20T14:47:11.992Z,22.11
2019-06-20T14:49:38.239Z,21.97
2019-06-20T14:52:04.697Z,21.87
2019-06-20T14:54:31.871Z,21.79
2019-06-20T14:56:58.415Z,21.67
2019-06-20T14:59:27.971Z,21.69
2019-06-20T15:01:55.501Z,21.65
2019-06-20T15:04:24.391Z,21.51
2019-06-20T15:06:50.643Z,21.39
2019-06-20T15:09:16.776Z,21.33
2019-06-20T15:11:45.834Z,21.31
2019-06-20T15:14:11.275Z,21.26
2019-06-20T15:16:37.404Z,21.22
2019-06-20T15:19:03.656Z,21.12
2019-06-20T15:21:29.788Z,21.00
2019-06-20T15:23:56.670Z,20.87
2019-06-20T15:26:22.966Z,20.88
2019-06-20T15:28:49.770Z,20.86
2019-06-20T15:31:17.348Z,20.84
2019-06-20T15:33:43.727Z,20.71
2019-06-20T15:36:10.040Z,20.68
2019-06-20T15:38:36.287Z,20.65
2019-06-20T15:41:04.345Z,20.70
2019-06-20T15:43:30.567Z,20.79
2019-06-20T15:45:58.385Z,20.81
2019-06-20T15:48:24.649Z,20.87
2019-06-20T15:50:50.820Z,20.79
2019-06-20T15:53:17.021Z,20.72
2019-06-20T15:55:44.836Z,20.78
2019-06-20T15:58:10.974Z,20.76
2019-06-20T16:00:37.210Z,20.66
2019-06-20T16:03:10.006Z,20.57
2019-06-20T16:05:31.744Z,20.48
2019-06-20T16:07:57.975Z,20.46
2019-06-20T16:10:24.242Z,20.36
2019-06-20T16:12:50.493Z,20.17
2019-06-20T16:15:21.613Z,20.07
2019-06-20T16:17:50.591Z,20.04
2019-06-20T16:20:17.079Z,20.07
2019-06-20T16:22:43.336Z,20.13
2019-06-20T16:25:10.344Z,20.18
2019-06-20T16:27:37.043Z,20.25
2019-06-20T16:30:07.222Z,20.15
2019-06-20T16:32:33.467Z,20.19
2019-06-20T16:34:59.700Z,20.24
2019-06-20T16:37:25.938Z,20.28
2019-06-20T16:39:52.178Z,20.29
2019-06-20T16:42:19.004Z,20.27
2019-06-20T16:44:45.153Z,20.31
2019-06-20T16:47:11.434Z,20.33
2019-06-20T16:49:37.657Z,20.25
2019-06-20T16:52:05.313Z,20.18
2019-06-20T16:54:31.535Z,20.16
2019-06-20T16:56:57.769Z,20.23
2019-06-20T16:59:24.019Z,20.12
2019-06-20T17:01:51.125Z,20.07
2019-06-20T17:04:17.251Z,20.05
2019-06-20T17:06:43.506Z,20.01
2019-06-20T17:09:10.054Z,20.01
2019-06-20T17:11:36.240Z,20.01
2019-06-20T17:14:02.472Z,19.95
2019-06-20T17:16:28.700Z,19.87
2019-06-20T17:18:54.947Z,19.82
2019-06-20T17:21:21.121Z,19.75
2019-06-20T17:23:47.390Z,19.61
2019-06-20T17:26:13.688Z,19.53
2019-06-20T17:28:39.928Z,19.37
2019-06-20T17:31:06.072Z,19.25
2019-06-20T17:33:32.320Z,19.17
2019-06-20T17:35:58.556Z,19.18
2019-06-20T17:38:24.879Z,19.14
2019-06-20T17:40:51.134Z,19.07
2019-06-20T17:43:19.204Z,19.06
2019-06-20T17:45:45.467Z,19.07
2019-06-20T17:48:11.906Z,19.00
2019-06-20T17:50:38.092Z,18.90
2019-06-20T17:53:06.033Z,18.84
2019-06-20T17:55:36.267Z,18.78
2019-06-20T17:58:03.764Z,18.69
2019-06-20T18:00:30.421Z,18.71
2019-06-20T18:02:56.705Z,18.59
2019-06-20T18:05:24.201Z,18.44
2019-06-20T18:07:50.470Z,18.31
2019-06-20T18:10:19.907Z,18.26
2019-06-20T18:12:46.092Z,18.18
2019-06-20T18:15:13.144Z,18.02
2019-06-20T18:17:39.764Z,17.87
2019-06-20T18:20:07.216Z,17.70
2019-06-20T18:22:33.444Z,17.61
2019-06-20T18:24:59.593Z,17.55
2019-06-20T18:27:25.854Z,17.51
2019-06-20T18:29:52.123Z,17.50
2019-06-20T18:32:18.481Z,17.50
2019-06-20T18:35:00.557Z,17.48
2019-06-20T18:37:12.873Z,17.41
2019-06-20T18:39:43.888Z,17.39
2019-06-20T18:42:10.373Z,17.39
2019-06-20T18:44:36.622Z,17.36
2019-06-20T18:47:03.029Z,17.34
2019-06-20T18:49:30.345Z,17.35
2019-06-20T18:51:56.586Z,17.34
2019-06-20T18:54:24.116Z,17.34
2019-06-20T18:56:50.259Z,17.28
2019-06-20T18:59:16.515Z,17.25
2019-06-20T19:01:44.212Z,17.22
2019-06-20T19:04:13.293Z,17.15
2019-06-20T19:06:39.608Z,17.13
2019-06-20T19:09:07.843Z,17.08
2019-06-20T19:11:34.083Z,17.04
2019-06-20T19:14:00.701Z,16.98
2019-06-20T19:16:27.034Z,16.92
2019-06-20T19:18:53.312Z,16.86
2019-06-20T19:21:19.686Z,16.79
2019-06-20T19:23:45.903Z,16.72
2019-06-20T19:26:13.010Z,16.69
2019-06-20T19:28:39.233Z,16.64
2019-06-20T19:31:05.493Z,16.60
2019-06-20T19:33:31.731Z,16.56
2019-06-20T19:35:58.165Z,16.54
2019-06-20T19:38:24.311Z,16.55
2019-06-20T19:40:50.850Z,16.46
2019-06-20T19:43:17.114Z,16.42
2019-06-20T19:45:45.422Z,16.41
2019-06-20T19:48:12.853Z,16.36
2019-06-20T19:50:39.508Z,16.40
2019-06-20T19:53:07.405Z,16.35
2019-06-20T19:55:34.514Z,16.34
2019-06-20T19:58:03.973Z,16.24
2019-06-20T20:00:30.226Z,16.22
2019-06-20T20:02:56.577Z,16.13
2019-06-20T20:05:22.810Z,16.10
2019-06-20T20:07:49.168Z,16.03
2019-06-20T20:10:19.231Z,15.96
2019-06-20T20:12:45.568Z,15.90
2019-06-20T20:15:12.468Z,15.90
2019-06-20T20:17:38.698Z,15.83
2019-06-20T20:20:06.240Z,15.85
2019-06-20T20:22:33.293Z,15.86
2019-06-20T20:25:06.045Z,15.87
2019-06-20T20:27:32.480Z,15.85
2019-06-20T20:29:59.084Z,15.83
2019-06-20T20:32:25.277Z,15.83
2019-06-20T20:34:51.429Z,15.80
2019-06-20T20:37:17.937Z,15.76
2019-06-20T20:39:44.191Z,15.74
2019-06-20T20:42:10.587Z,15.71
2019-06-20T20:44:37.131Z,15.67
2019-06-20T20:47:03.370Z,15.59
2019-06-20T20:49:29.629Z,15.60
2019-06-20T20:51:55.875Z,15.60
2019-06-20T20:54:22.026Z,15.59
2019-06-20T20:56:48.243Z,15.50
2019-06-20T20:59:14.438Z,15.48
2019-06-20T21:01:40.668Z,15.47
2019-06-20T21:04:06.909Z,15.48
2019-06-20T21:06:36.208Z,15.44
2019-06-20T21:09:03.689Z,15.45
2019-06-20T21:11:29.817Z,15.35
2019-06-20T21:13:56.072Z,15.35
2019-06-20T21:16:22.282Z,15.37
2019-06-20T21:18:48.558Z,15.34
2019-06-20T21:21:14.835Z,15.35
2019-06-20T21:23:40.948Z,15.35
2019-06-20T21:26:07.126Z,15.34
2019-06-20T21:28:33.352Z,15.32
2019-06-20T21:30:59.618Z,15.31
2019-06-20T21:33:25.856Z,15.31
2019-06-20T21:36:07.298Z,15.32
2019-06-20T21:38:20.544Z,15.30
2019-06-20T21:40:46.673Z,15.28
2019-06-20T21:43:12.814Z,15.26
2019-06-20T21:45:39.055Z,15.25
2019-06-20T21:48:05.350Z,15.23
2019-06-20T21:50:31.518Z,15.24
2019-06-20T21:52:57.767Z,15.25
2019-06-20T21:55:24.012Z,15.24
2019-06-20T21:57:50.157Z,15.23
2019-06-20T22:00:32.808Z,15.22
2019-06-20T22:02:59.167Z,15.22
2019-06-20T22:05:25.433Z,15.21
2019-06-20T22:07:52.982Z,15.21
2019-06-20T22:10:19.423Z,15.23
2019-06-20T22:12:45.686Z,15.22
2019-06-20T22:15:12.213Z,15.20
2019-06-20T22:17:38.764Z,15.17
2019-06-20T22:20:07.605Z,15.15
2019-06-20T22:22:34.183Z,15.13
2019-06-20T22:25:00.733Z,15.16
2019-06-20T22:27:27.325Z,15.15
2019-06-20T22:29:53.540Z,15.14
2019-06-20T22:32:20.958Z,15.12
2019-06-20T22:34:47.187Z,15.09
2019-06-20T22:37:15.582Z,15.07
2019-06-20T22:39:41.846Z,15.08
2019-06-20T22:42:07.979Z,15.07
2019-06-20T22:44:35.858Z,14.97
2019-06-20T22:47:03.914Z,14.96
2019-06-20T22:49:30.161Z,14.93
2019-06-20T22:51:56.383Z,14.89
2019-06-20T22:54:22.523Z,14.84
2019-06-20T22:56:50.359Z,14.84
2019-06-20T22:59:16.578Z,14.79
2019-06-20T23:01:42.817Z,14.75
2019-06-20T23:04:08.949Z,14.72
2019-06-20T23:06:36.174Z,14.70
2019-06-20T23:09:03.992Z,14.67
2019-06-20T23:11:30.615Z,14.63
2019-06-20T23:13:56.900Z,14.57
2019-06-20T23:16:24.406Z,14.48
2019-06-20T23:18:50.648Z,14.41
2019-06-20T23:21:16.871Z,14.35
2019-06-20T23:23:43.118Z,14.27
2019-06-20T23:26:12.070Z,14.21
2019-06-20T23:28:38.242Z,14.13
2019-06-20T23:31:05.669Z,14.07
2019-06-20T23:33:33.937Z,14.05
2019-06-20T23:36:00.737Z,14.01
2019-06-20T23:38:26.857Z,13.94
2019-06-20T23:40:54.900Z,13.90
2019-06-20T23:43:21.036Z,13.82
2019-06-20T23:45:47.264Z,13.76
2019-06-20T23:48:13.504Z,13.70
2019-06-20T23:50:39.732Z,13.64
2019-06-20T23:53:10.554Z,13.55
2019-06-20T23:55:36.812Z,13.49
2019-06-20T23:58:03.154Z,13.43
